Terminal Aerodrome Forecast
Issued by NWS

Home | Current Version | Previous Version | Text Only | Print | Product List | Glossary On
Versions: 1 2 3 4 5 6 7 8 9 10 11 12 13 14
000
FTUS43 KPAH 032320
TAFCGI
TAF
KCGI 032320Z 0400/0424 22003KT P6SM FEW050
     FM040100 00000KT P6SM SKC
     FM040900 00000KT 4SM HZ BR MIFG SKC
     FM041300 00000KT P6SM SKC
     FM041630 17004KT P6SM FEW050=

USA.gov is the U.S. government's official web portal to all federal, state and local government web resources and services.